sensor_id;sensor_type;location;lat;lon;timestamp;P1;durP1;ratioP1;P2;durP2;ratioP2
13979;SDS011;73871;49.900;8.594;2023-11-19T00:00:07;10.27;;;8.30;;
13979;SDS011;73871;49.900;8.594;2023-11-19T00:02:38;9.57;;;8.67;;
13979;SDS011;73871;49.900;8.594;2023-11-19T00:05:05;9.77;;;8.77;;
13979;SDS011;73871;49.900;8.594;2023-11-19T00:07:35;10.20;;;9.20;;
13979;SDS011;73871;49.900;8.594;2023-11-19T00:10:02;9.30;;;8.40;;
13979;SDS011;73871;49.900;8.594;2023-11-19T00:12:33;12.13;;;9.00;;
13979;SDS011;73871;49.900;8.594;2023-11-19T00:14:59;10.37;;;9.27;;
13979;SDS011;73871;49.900;8.594;2023-11-19T00:17:26;9.70;;;8.70;;
13979;SDS011;73871;49.900;8.594;2023-11-19T00:19:53;9.50;;;8.60;;
13979;SDS011;73871;49.900;8.594;2023-11-19T00:22:20;10.37;;;9.37;;
13979;SDS011;73871;49.900;8.594;2023-11-19T00:24:48;10.10;;;8.20;;
13979;SDS011;73871;49.900;8.594;2023-11-19T00:27:15;8.70;;;7.90;;
13979;SDS011;73871;49.900;8.594;2023-11-19T00:29:42;9.03;;;7.97;;
13979;SDS011;73871;49.900;8.594;2023-11-19T00:32:12;8.70;;;7.90;;
13979;SDS011;73871;49.900;8.594;2023-11-19T00:34:39;9.23;;;8.33;;
13979;SDS011;73871;49.900;8.594;2023-11-19T00:37:05;8.17;;;7.47;;
13979;SDS011;73871;49.900;8.594;2023-11-19T00:39:33;8.70;;;7.77;;
13979;SDS011;73871;49.900;8.594;2023-11-19T00:42:00;8.57;;;7.77;;
13979;SDS011;73871;49.900;8.594;2023-11-19T00:44:26;9.07;;;7.83;;
13979;SDS011;73871;49.900;8.594;2023-11-19T00:46:53;8.67;;;7.83;;
13979;SDS011;73871;49.900;8.594;2023-11-19T00:49:20;9.20;;;8.30;;
13979;SDS011;73871;49.900;8.594;2023-11-19T00:51:46;8.77;;;7.93;;
13979;SDS011;73871;49.900;8.594;2023-11-19T00:54:13;9.10;;;8.20;;
13979;SDS011;73871;49.900;8.594;2023-11-19T00:56:40;8.50;;;7.70;;
13979;SDS011;73871;49.900;8.594;2023-11-19T00:59:07;8.10;;;7.30;;
13979;SDS011;73871;49.900;8.594;2023-11-19T01:01:34;7.27;;;6.67;;
13979;SDS011;73871;49.900;8.594;2023-11-19T01:04:01;6.83;;;6.23;;
13979;SDS011;73871;49.900;8.594;2023-11-19T01:06:32;8.20;;;7.40;;
13979;SDS011;73871;49.900;8.594;2023-11-19T01:08:58;7.87;;;7.07;;
13979;SDS011;73871;49.900;8.594;2023-11-19T01:11:25;7.77;;;6.97;;
13979;SDS011;73871;49.900;8.594;2023-11-19T01:13:52;8.00;;;7.20;;
13979;SDS011;73871;49.900;8.594;2023-11-19T01:16:19;9.03;;;8.13;;
13979;SDS011;73871;49.900;8.594;2023-11-19T01:18:47;8.80;;;7.90;;
13979;SDS011;73871;49.900;8.594;2023-11-19T01:21:15;7.80;;;7.13;;
13979;SDS011;73871;49.900;8.594;2023-11-19T01:23:42;8.20;;;7.40;;
13979;SDS011;73871;49.900;8.594;2023-11-19T01:26:12;7.80;;;7.00;;
13979;SDS011;73871;49.900;8.594;2023-11-19T01:28:39;9.10;;;7.33;;
13979;SDS011;73871;49.900;8.594;2023-11-19T01:31:17;7.67;;;6.90;;
13979;SDS011;73871;49.900;8.594;2023-11-19T01:33:44;6.70;;;6.00;;
13979;SDS011;73871;49.900;8.594;2023-11-19T01:36:13;6.90;;;6.30;;
13979;SDS011;73871;49.900;8.594;2023-11-19T01:38:40;7.00;;;6.30;;
13979;SDS011;73871;49.900;8.594;2023-11-19T01:41:07;6.70;;;6.10;;
13979;SDS011;73871;49.900;8.594;2023-11-19T01:43:35;6.83;;;6.13;;
13979;SDS011;73871;49.900;8.594;2023-11-19T01:46:04;6.67;;;5.97;;
13979;SDS011;73871;49.900;8.594;2023-11-19T01:48:33;6.90;;;6.30;;
13979;SDS011;73871;49.900;8.594;2023-11-19T01:51:02;6.93;;;6.33;;
13979;SDS011;73871;49.900;8.594;2023-11-19T01:53:30;6.80;;;6.20;;
13979;SDS011;73871;49.900;8.594;2023-11-19T01:55:58;5.90;;;5.40;;
13979;SDS011;73871;49.900;8.594;2023-11-19T01:58:25;8.07;;;6.37;;
13979;SDS011;73871;49.900;8.594;2023-11-19T02:00:53;6.07;;;5.53;;
13979;SDS011;73871;49.900;8.594;2023-11-19T02:03:20;5.87;;;5.37;;
13979;SDS011;73871;49.900;8.594;2023-11-19T02:05:48;5.20;;;4.70;;
13979;SDS011;73871;49.900;8.594;2023-11-19T02:08:15;4.53;;;4.20;;
13979;SDS011;73871;49.900;8.594;2023-11-19T02:10:42;5.30;;;4.80;;
13979;SDS011;73871;49.900;8.594;2023-11-19T02:13:09;4.37;;;3.97;;
13979;SDS011;73871;49.900;8.594;2023-11-19T02:15:40;4.97;;;4.47;;
13979;SDS011;73871;49.900;8.594;2023-11-19T02:18:17;3.80;;;3.50;;
13979;SDS011;73871;49.900;8.594;2023-11-19T02:20:54;3.80;;;3.50;;
13979;SDS011;73871;49.900;8.594;2023-11-19T02:23:28;4.03;;;3.63;;
13979;SDS011;73871;49.900;8.594;2023-11-19T02:26:02;4.43;;;3.43;;
13979;SDS011;73871;49.900;8.594;2023-11-19T02:28:41;4.20;;;3.80;;
13979;SDS011;73871;49.900;8.594;2023-11-19T02:31:10;3.63;;;3.33;;
13979;SDS011;73871;49.900;8.594;2023-11-19T02:33:37;6.63;;;3.60;;
13979;SDS011;73871;49.900;8.594;2023-11-19T02:36:05;4.00;;;3.60;;
13979;SDS011;73871;49.900;8.594;2023-11-19T02:38:33;3.73;;;3.23;;
13979;SDS011;73871;49.900;8.594;2023-11-19T02:41:05;3.33;;;3.13;;
13979;SDS011;73871;49.900;8.594;2023-11-19T02:43:33;3.63;;;3.33;;
13979;SDS011;73871;49.900;8.594;2023-11-19T02:46:01;3.30;;;3.00;;
13979;SDS011;73871;49.900;8.594;2023-11-19T02:48:41;3.83;;;3.40;;
13979;SDS011;73871;49.900;8.594;2023-11-19T02:51:09;3.23;;;2.93;;
13979;SDS011;73871;49.900;8.594;2023-11-19T02:53:37;3.63;;;3.33;;
13979;SDS011;73871;49.900;8.594;2023-11-19T02:56:06;3.70;;;3.40;;
13979;SDS011;73871;49.900;8.594;2023-11-19T02:58:46;3.30;;;3.00;;
13979;SDS011;73871;49.900;8.594;2023-11-19T03:01:14;3.57;;;3.27;;
13979;SDS011;73871;49.900;8.594;2023-11-19T03:03:50;3.73;;;3.43;;
13979;SDS011;73871;49.900;8.594;2023-11-19T03:06:23;3.30;;;3.00;;
13979;SDS011;73871;49.900;8.594;2023-11-19T03:08:50;3.03;;;2.83;;
13979;SDS011;73871;49.900;8.594;2023-11-19T03:11:17;3.30;;;2.93;;
13979;SDS011;73871;49.900;8.594;2023-11-19T03:13:44;3.90;;;3.20;;
13979;SDS011;73871;49.900;8.594;2023-11-19T03:16:10;2.67;;;2.47;;
13979;SDS011;73871;49.900;8.594;2023-11-19T03:18:37;3.10;;;2.90;;
13979;SDS011;73871;49.900;8.594;2023-11-19T03:21:06;3.70;;;2.93;;
13979;SDS011;73871;49.900;8.594;2023-11-19T03:23:34;3.00;;;2.80;;
13979;SDS011;73871;49.900;8.594;2023-11-19T03:26:01;3.30;;;3.00;;
13979;SDS011;73871;49.900;8.594;2023-11-19T03:28:32;3.67;;;3.37;;
13979;SDS011;73871;49.900;8.594;2023-11-19T03:30:59;3.70;;;3.20;;
13979;SDS011;73871;49.900;8.594;2023-11-19T03:33:26;3.60;;;3.30;;
13979;SDS011;73871;49.900;8.594;2023-11-19T03:35:54;3.70;;;3.40;;
13979;SDS011;73871;49.900;8.594;2023-11-19T03:38:23;4.30;;;3.87;;
13979;SDS011;73871;49.900;8.594;2023-11-19T03:40:53;4.80;;;4.40;;
13979;SDS011;73871;49.900;8.594;2023-11-19T03:43:20;4.20;;;3.80;;
13979;SDS011;73871;49.900;8.594;2023-11-19T03:45:46;4.17;;;3.87;;
13979;SDS011;73871;49.900;8.594;2023-11-19T03:48:14;4.80;;;3.90;;
13979;SDS011;73871;49.900;8.594;2023-11-19T03:50:43;4.33;;;4.03;;
13979;SDS011;73871;49.900;8.594;2023-11-19T03:53:11;4.30;;;4.00;;
13979;SDS011;73871;49.900;8.594;2023-11-19T03:55:44;4.30;;;4.00;;
13979;SDS011;73871;49.900;8.594;2023-11-19T03:58:11;4.20;;;3.80;;
13979;SDS011;73871;49.900;8.594;2023-11-19T04:00:39;4.37;;;3.90;;
13979;SDS011;73871;49.900;8.594;2023-11-19T04:03:07;4.20;;;3.90;;
13979;SDS011;73871;49.900;8.594;2023-11-19T04:05:33;5.97;;;4.23;;
13979;SDS011;73871;49.900;8.594;2023-11-19T04:08:00;4.00;;;3.67;;
13979;SDS011;73871;49.900;8.594;2023-11-19T04:10:27;4.70;;;4.30;;
13979;SDS011;73871;49.900;8.594;2023-11-19T04:12:55;4.77;;;4.37;;
13979;SDS011;73871;49.900;8.594;2023-11-19T04:15:22;4.50;;;4.17;;
13979;SDS011;73871;49.900;8.594;2023-11-19T04:17:50;5.27;;;4.63;;
13979;SDS011;73871;49.900;8.594;2023-11-19T04:20:17;5.40;;;4.63;;
13979;SDS011;73871;49.900;8.594;2023-11-19T04:22:44;5.30;;;4.90;;
13979;SDS011;73871;49.900;8.594;2023-11-19T04:25:11;5.27;;;4.87;;
13979;SDS011;73871;49.900;8.594;2023-11-19T04:27:37;5.53;;;4.80;;
13979;SDS011;73871;49.900;8.594;2023-11-19T04:30:06;5.70;;;4.57;;
13979;SDS011;73871;49.900;8.594;2023-11-19T04:32:37;4.87;;;4.47;;
13979;SDS011;73871;49.900;8.594;2023-11-19T04:35:03;4.63;;;4.23;;
13979;SDS011;73871;49.900;8.594;2023-11-19T04:37:31;7.67;;;4.30;;
13979;SDS011;73871;49.900;8.594;2023-11-19T04:39:57;5.63;;;5.13;;
13979;SDS011;73871;49.900;8.594;2023-11-19T04:42:26;5.33;;;4.93;;
13979;SDS011;73871;49.900;8.594;2023-11-19T04:44:52;5.40;;;4.90;;
13979;SDS011;73871;49.900;8.594;2023-11-19T04:47:19;5.63;;;4.83;;
13979;SDS011;73871;49.900;8.594;2023-11-19T04:49:46;5.47;;;5.03;;
13979;SDS011;73871;49.900;8.594;2023-11-19T04:52:13;5.70;;;4.90;;
13979;SDS011;73871;49.900;8.594;2023-11-19T04:54:43;4.67;;;4.27;;
13979;SDS011;73871;49.900;8.594;2023-11-19T04:57:11;5.13;;;4.70;;
13979;SDS011;73871;49.900;8.594;2023-11-19T04:59:38;6.30;;;5.70;;
13979;SDS011;73871;49.900;8.594;2023-11-19T05:02:05;5.43;;;5.03;;
13979;SDS011;73871;49.900;8.594;2023-11-19T05:04:31;6.60;;;5.90;;
13979;SDS011;73871;49.900;8.594;2023-11-19T05:06:59;5.40;;;4.97;;
13979;SDS011;73871;49.900;8.594;2023-11-19T05:09:25;6.67;;;6.07;;
13979;SDS011;73871;49.900;8.594;2023-11-19T05:11:52;6.43;;;5.93;;
13979;SDS011;73871;49.900;8.594;2023-11-19T05:14:20;7.57;;;6.83;;
13979;SDS011;73871;49.900;8.594;2023-11-19T05:16:47;7.37;;;6.77;;
13979;SDS011;73871;49.900;8.594;2023-11-19T05:19:14;7.37;;;6.77;;
13979;SDS011;73871;49.900;8.594;2023-11-19T05:21:42;6.53;;;5.73;;
13979;SDS011;73871;49.900;8.594;2023-11-19T05:24:09;7.27;;;6.23;;
13979;SDS011;73871;49.900;8.594;2023-11-19T05:26:38;5.77;;;5.37;;
13979;SDS011;73871;49.900;8.594;2023-11-19T05:29:05;5.60;;;5.10;;
13979;SDS011;73871;49.900;8.594;2023-11-19T05:31:31;5.10;;;4.70;;
13979;SDS011;73871;49.900;8.594;2023-11-19T05:34:02;5.40;;;4.90;;
13979;SDS011;73871;49.900;8.594;2023-11-19T05:36:29;6.53;;;5.33;;
13979;SDS011;73871;49.900;8.594;2023-11-19T05:38:56;5.00;;;4.60;;
13979;SDS011;73871;49.900;8.594;2023-11-19T05:41:23;5.27;;;4.83;;
13979;SDS011;73871;49.900;8.594;2023-11-19T05:43:50;4.90;;;4.50;;
13979;SDS011;73871;49.900;8.594;2023-11-19T05:46:17;5.70;;;4.80;;
13979;SDS011;73871;49.900;8.594;2023-11-19T05:48:46;5.77;;;5.10;;
13979;SDS011;73871;49.900;8.594;2023-11-19T05:51:13;5.40;;;4.90;;
13979;SDS011;73871;49.900;8.594;2023-11-19T05:53:41;5.90;;;5.30;;
13979;SDS011;73871;49.900;8.594;2023-11-19T05:56:08;5.57;;;5.17;;
13979;SDS011;73871;49.900;8.594;2023-11-19T05:58:36;6.00;;;5.17;;
13979;SDS011;73871;49.900;8.594;2023-11-19T06:01:04;6.03;;;5.43;;
13979;SDS011;73871;49.900;8.594;2023-11-19T06:03:33;5.80;;;5.30;;
13979;SDS011;73871;49.900;8.594;2023-11-19T06:06:00;6.37;;;5.77;;
13979;SDS011;73871;49.900;8.594;2023-11-19T06:08:26;5.53;;;5.03;;
13979;SDS011;73871;49.900;8.594;2023-11-19T06:10:53;7.13;;;6.17;;
13979;SDS011;73871;49.900;8.594;2023-11-19T06:13:20;6.57;;;5.77;;
13979;SDS011;73871;49.900;8.594;2023-11-19T06:15:50;7.23;;;6.13;;
13979;SDS011;73871;49.900;8.594;2023-11-19T06:18:17;7.87;;;7.03;;
13979;SDS011;73871;49.900;8.594;2023-11-19T06:20:46;7.23;;;6.03;;
13979;SDS011;73871;49.900;8.594;2023-11-19T06:23:13;8.77;;;5.87;;
13979;SDS011;73871;49.900;8.594;2023-11-19T06:25:40;6.67;;;6.07;;
13979;SDS011;73871;49.900;8.594;2023-11-19T06:28:06;6.43;;;5.60;;
13979;SDS011;73871;49.900;8.594;2023-11-19T06:30:33;6.23;;;5.27;;
13979;SDS011;73871;49.900;8.594;2023-11-19T06:33:01;6.97;;;5.60;;
13979;SDS011;73871;49.900;8.594;2023-11-19T06:35:29;6.03;;;5.43;;
13979;SDS011;73871;49.900;8.594;2023-11-19T06:38:02;5.73;;;5.07;;
13979;SDS011;73871;49.900;8.594;2023-11-19T06:40:31;5.43;;;4.93;;
13979;SDS011;73871;49.900;8.594;2023-11-19T06:42:59;6.73;;;5.80;;
13979;SDS011;73871;49.900;8.594;2023-11-19T06:45:26;6.80;;;5.83;;
13979;SDS011;73871;49.900;8.594;2023-11-19T06:47:53;7.33;;;6.67;;
13979;SDS011;73871;49.900;8.594;2023-11-19T06:50:20;7.53;;;6.73;;
13979;SDS011;73871;49.900;8.594;2023-11-19T06:52:47;7.80;;;6.60;;
13979;SDS011;73871;49.900;8.594;2023-11-19T06:55:13;7.07;;;6.40;;
13979;SDS011;73871;49.900;8.594;2023-11-19T06:57:40;7.40;;;6.40;;
13979;SDS011;73871;49.900;8.594;2023-11-19T07:00:08;6.80;;;6.10;;
13979;SDS011;73871;49.900;8.594;2023-11-19T07:02:37;5.93;;;5.33;;
13979;SDS011;73871;49.900;8.594;2023-11-19T07:05:05;9.03;;;6.30;;
13979;SDS011;73871;49.900;8.594;2023-11-19T07:07:32;6.00;;;5.47;;
13979;SDS011;73871;49.900;8.594;2023-11-19T07:09:59;7.67;;;5.67;;
13979;SDS011;73871;49.900;8.594;2023-11-19T07:12:25;5.07;;;4.67;;
13979;SDS011;73871;49.900;8.594;2023-11-19T07:14:52;5.77;;;5.27;;
13979;SDS011;73871;49.900;8.594;2023-11-19T07:17:21;5.80;;;4.70;;
13979;SDS011;73871;49.900;8.594;2023-11-19T07:19:49;5.83;;;5.20;;
13979;SDS011;73871;49.900;8.594;2023-11-19T07:22:16;5.90;;;5.30;;
13979;SDS011;73871;49.900;8.594;2023-11-19T07:24:43;5.90;;;5.30;;
13979;SDS011;73871;49.900;8.594;2023-11-19T07:27:10;6.10;;;5.27;;
13979;SDS011;73871;49.900;8.594;2023-11-19T07:29:37;8.50;;;5.47;;
13979;SDS011;73871;49.900;8.594;2023-11-19T07:32:04;6.63;;;4.90;;
13979;SDS011;73871;49.900;8.594;2023-11-19T07:34:31;7.93;;;5.40;;
13979;SDS011;73871;49.900;8.594;2023-11-19T07:36:58;5.57;;;5.00;;
13979;SDS011;73871;49.900;8.594;2023-11-19T07:39:29;5.00;;;3.80;;
13979;SDS011;73871;49.900;8.594;2023-11-19T07:41:55;5.63;;;4.13;;
13979;SDS011;73871;49.900;8.594;2023-11-19T07:44:24;5.23;;;4.70;;
13979;SDS011;73871;49.900;8.594;2023-11-19T07:46:51;7.40;;;4.20;;
13979;SDS011;73871;49.900;8.594;2023-11-19T07:49:17;5.27;;;4.20;;
13979;SDS011;73871;49.900;8.594;2023-11-19T07:51:44;4.60;;;4.20;;
13979;SDS011;73871;49.900;8.594;2023-11-19T07:54:11;4.20;;;3.80;;
13979;SDS011;73871;49.900;8.594;2023-11-19T07:56:37;5.13;;;4.10;;
13979;SDS011;73871;49.900;8.594;2023-11-19T07:59:04;5.37;;;4.00;;
13979;SDS011;73871;49.900;8.594;2023-11-19T08:01:32;4.90;;;3.70;;
13979;SDS011;73871;49.900;8.594;2023-11-19T08:03:59;5.57;;;3.93;;
13979;SDS011;73871;49.900;8.594;2023-11-19T08:06:28;6.23;;;3.77;;
13979;SDS011;73871;49.900;8.594;2023-11-19T08:08:55;4.43;;;3.77;;
13979;SDS011;73871;49.900;8.594;2023-11-19T08:11:22;4.73;;;3.63;;
13979;SDS011;73871;49.900;8.594;2023-11-19T08:13:50;6.00;;;4.00;;
13979;SDS011;73871;49.900;8.594;2023-11-19T08:16:17;3.50;;;3.20;;
13979;SDS011;73871;49.900;8.594;2023-11-19T08:18:44;5.57;;;3.50;;
13979;SDS011;73871;49.900;8.594;2023-11-19T08:21:11;5.63;;;3.37;;
13979;SDS011;73871;49.900;8.594;2023-11-19T08:23:37;5.50;;;3.50;;
13979;SDS011;73871;49.900;8.594;2023-11-19T08:26:05;5.37;;;3.50;;
13979;SDS011;73871;49.900;8.594;2023-11-19T08:28:32;5.07;;;3.27;;
13979;SDS011;73871;49.900;8.594;2023-11-19T08:31:01;4.03;;;2.90;;
13979;SDS011;73871;49.900;8.594;2023-11-19T08:33:30;3.27;;;2.70;;
13979;SDS011;73871;49.900;8.594;2023-11-19T08:35:58;2.73;;;2.40;;
13979;SDS011;73871;49.900;8.594;2023-11-19T08:38:24;4.60;;;3.00;;
13979;SDS011;73871;49.900;8.594;2023-11-19T08:40:54;3.97;;;2.53;;
13979;SDS011;73871;49.900;8.594;2023-11-19T08:43:26;3.53;;;2.47;;
13979;SDS011;73871;49.900;8.594;2023-11-19T08:45:53;3.50;;;2.20;;
13979;SDS011;73871;49.900;8.594;2023-11-19T08:48:20;2.93;;;2.03;;
13979;SDS011;73871;49.900;8.594;2023-11-19T08:50:47;3.87;;;2.17;;
13979;SDS011;73871;49.900;8.594;2023-11-19T08:53:14;3.97;;;2.10;;
13979;SDS011;73871;49.900;8.594;2023-11-19T08:55:41;2.23;;;2.00;;
13979;SDS011;73871;49.900;8.594;2023-11-19T08:58:08;3.43;;;1.83;;
13979;SDS011;73871;49.900;8.594;2023-11-19T09:00:34;4.70;;;1.93;;
13979;SDS011;73871;49.900;8.594;2023-11-19T09:03:03;3.40;;;1.63;;
13979;SDS011;73871;49.900;8.594;2023-11-19T09:05:30;2.77;;;1.90;;
13979;SDS011;73871;49.900;8.594;2023-11-19T09:07:57;2.90;;;1.97;;
13979;SDS011;73871;49.900;8.594;2023-11-19T09:10:24;4.23;;;2.00;;
13979;SDS011;73871;49.900;8.594;2023-11-19T09:12:52;3.37;;;1.93;;
13979;SDS011;73871;49.900;8.594;2023-11-19T09:15:22;3.27;;;1.67;;
13979;SDS011;73871;49.900;8.594;2023-11-19T09:17:49;4.13;;;1.90;;
13979;SDS011;73871;49.900;8.594;2023-11-19T09:20:16;4.70;;;1.83;;
13979;SDS011;73871;49.900;8.594;2023-11-19T09:22:42;3.07;;;1.80;;
13979;SDS011;73871;49.900;8.594;2023-11-19T09:25:09;2.57;;;1.60;;
13979;SDS011;73871;49.900;8.594;2023-11-19T09:27:36;4.87;;;1.77;;
13979;SDS011;73871;49.900;8.594;2023-11-19T09:30:03;3.93;;;1.20;;
13979;SDS011;73871;49.900;8.594;2023-11-19T09:32:30;5.10;;;1.70;;
13979;SDS011;73871;49.900;8.594;2023-11-19T09:34:57;3.93;;;1.40;;
13979;SDS011;73871;49.900;8.594;2023-11-19T09:37:24;4.97;;;1.50;;
13979;SDS011;73871;49.900;8.594;2023-11-19T09:39:51;2.90;;;1.50;;
13979;SDS011;73871;49.900;8.594;2023-11-19T09:42:19;3.03;;;1.37;;
13979;SDS011;73871;49.900;8.594;2023-11-19T09:44:47;3.83;;;1.50;;
13979;SDS011;73871;49.900;8.594;2023-11-19T09:47:14;5.13;;;1.50;;
13979;SDS011;73871;49.900;8.594;2023-11-19T09:49:43;2.27;;;1.27;;
13979;SDS011;73871;49.900;8.594;2023-11-19T09:52:10;3.63;;;1.37;;
13979;SDS011;73871;49.900;8.594;2023-11-19T09:54:37;2.63;;;1.40;;
13979;SDS011;73871;49.900;8.594;2023-11-19T09:57:05;2.80;;;1.30;;
13979;SDS011;73871;49.900;8.594;2023-11-19T09:59:33;3.00;;;1.40;;
13979;SDS011;73871;49.900;8.594;2023-11-19T10:02:00;3.40;;;1.40;;
13979;SDS011;73871;49.900;8.594;2023-11-19T10:04:29;5.07;;;1.43;;
13979;SDS011;73871;49.900;8.594;2023-11-19T10:06:58;4.90;;;1.67;;
13979;SDS011;73871;49.900;8.594;2023-11-19T10:09:25;3.63;;;1.70;;
13979;SDS011;73871;49.900;8.594;2023-11-19T10:11:52;3.37;;;1.53;;
13979;SDS011;73871;49.900;8.594;2023-11-19T10:14:22;3.60;;;1.17;;
13979;SDS011;73871;49.900;8.594;2023-11-19T10:16:50;6.90;;;1.57;;
13979;SDS011;73871;49.900;8.594;2023-11-19T10:19:20;2.87;;;1.10;;
13979;SDS011;73871;49.900;8.594;2023-11-19T10:21:47;7.07;;;1.67;;
13979;SDS011;73871;49.900;8.594;2023-11-19T10:24:14;7.60;;;1.63;;
13979;SDS011;73871;49.900;8.594;2023-11-19T10:26:56;3.83;;;1.40;;
13979;SDS011;73871;49.900;8.594;2023-11-19T10:29:23;6.10;;;1.10;;
13979;SDS011;73871;49.900;8.594;2023-11-19T10:31:57;3.67;;;1.50;;
13979;SDS011;73871;49.900;8.594;2023-11-19T10:34:44;5.00;;;1.53;;
13979;SDS011;73871;49.900;8.594;2023-11-19T10:37:28;4.47;;;1.33;;
13979;SDS011;73871;49.900;8.594;2023-11-19T10:39:58;4.07;;;1.40;;
13979;SDS011;73871;49.900;8.594;2023-11-19T10:42:26;2.93;;;1.43;;
13979;SDS011;73871;49.900;8.594;2023-11-19T10:44:53;4.20;;;1.67;;
13979;SDS011;73871;49.900;8.594;2023-11-19T10:47:19;5.80;;;1.97;;
13979;SDS011;73871;49.900;8.594;2023-11-19T10:50:04;3.03;;;1.47;;
13979;SDS011;73871;49.900;8.594;2023-11-19T10:52:32;6.40;;;1.70;;
13979;SDS011;73871;49.900;8.594;2023-11-19T10:55:00;4.13;;;1.47;;
13979;SDS011;73871;49.900;8.594;2023-11-19T10:57:28;3.33;;;1.40;;
13979;SDS011;73871;49.900;8.594;2023-11-19T11:00:00;5.37;;;1.50;;
13979;SDS011;73871;49.900;8.594;2023-11-19T11:02:29;4.60;;;1.57;;
13979;SDS011;73871;49.900;8.594;2023-11-19T11:05:02;5.10;;;1.50;;
13979;SDS011;73871;49.900;8.594;2023-11-19T11:07:29;4.23;;;1.40;;
13979;SDS011;73871;49.900;8.594;2023-11-19T11:10:06;5.43;;;1.63;;
13979;SDS011;73871;49.900;8.594;2023-11-19T11:12:36;6.13;;;1.53;;
13979;SDS011;73871;49.900;8.594;2023-11-19T11:15:04;5.10;;;1.50;;
13979;SDS011;73871;49.900;8.594;2023-11-19T11:17:34;3.87;;;1.20;;
13979;SDS011;73871;49.900;8.594;2023-11-19T11:20:05;5.53;;;1.57;;
13979;SDS011;73871;49.900;8.594;2023-11-19T11:22:38;4.27;;;1.40;;
13979;SDS011;73871;49.900;8.594;2023-11-19T11:25:40;3.43;;;1.43;;
13979;SDS011;73871;49.900;8.594;2023-11-19T11:31:35;4.80;;;1.50;;
13979;SDS011;73871;49.900;8.594;2023-11-19T11:37:02;2.27;;;1.10;;
13979;SDS011;73871;49.900;8.594;2023-11-19T11:39:34;4.63;;;1.20;;
13979;SDS011;73871;49.900;8.594;2023-11-19T11:47:33;3.00;;;1.30;;
13979;SDS011;73871;49.900;8.594;2023-11-19T11:50:13;2.47;;;1.00;;
13979;SDS011;73871;49.900;8.594;2023-11-19T11:56:11;3.27;;;1.23;;
13979;SDS011;73871;49.900;8.594;2023-11-19T11:58:18;5.07;;;1.33;;
13979;SDS011;73871;49.900;8.594;2023-11-19T12:00:47;3.57;;;1.10;;
13979;SDS011;73871;49.900;8.594;2023-11-19T12:03:14;4.87;;;1.60;;
13979;SDS011;73871;49.900;8.594;2023-11-19T12:05:45;4.63;;;1.43;;
13979;SDS011;73871;49.900;8.594;2023-11-19T12:08:14;3.63;;;1.40;;
13979;SDS011;73871;49.900;8.594;2023-11-19T12:13:18;3.83;;;1.20;;
13979;SDS011;73871;49.900;8.594;2023-11-19T12:20:55;5.50;;;1.60;;
13979;SDS011;73871;49.900;8.594;2023-11-19T12:23:22;3.57;;;1.60;;
13979;SDS011;73871;49.900;8.594;2023-11-19T12:25:50;6.70;;;1.50;;
13979;SDS011;73871;49.900;8.594;2023-11-19T12:28:16;6.40;;;1.70;;
13979;SDS011;73871;49.900;8.594;2023-11-19T12:30:44;4.73;;;1.40;;
13979;SDS011;73871;49.900;8.594;2023-11-19T12:33:12;3.87;;;1.40;;
13979;SDS011;73871;49.900;8.594;2023-11-19T12:35:43;6.47;;;1.73;;
13979;SDS011;73871;49.900;8.594;2023-11-19T12:38:25;4.40;;;1.40;;
13979;SDS011;73871;49.900;8.594;2023-11-19T12:41:05;5.77;;;1.83;;
13979;SDS011;73871;49.900;8.594;2023-11-19T12:43:32;5.53;;;1.77;;
13979;SDS011;73871;49.900;8.594;2023-11-19T12:46:20;9.07;;;1.93;;
13979;SDS011;73871;49.900;8.594;2023-11-19T12:48:50;2.70;;;1.43;;
13979;SDS011;73871;49.900;8.594;2023-11-19T12:51:18;5.70;;;1.57;;
13979;SDS011;73871;49.900;8.594;2023-11-19T12:53:49;8.67;;;1.80;;
13979;SDS011;73871;49.900;8.594;2023-11-19T12:56:20;6.30;;;1.60;;
13979;SDS011;73871;49.900;8.594;2023-11-19T12:58:47;8.07;;;1.40;;
13979;SDS011;73871;49.900;8.594;2023-11-19T13:01:15;8.80;;;2.10;;
13979;SDS011;73871;49.900;8.594;2023-11-19T13:03:50;5.97;;;2.10;;
13979;SDS011;73871;49.900;8.594;2023-11-19T13:06:21;7.50;;;1.50;;
13979;SDS011;73871;49.900;8.594;2023-11-19T13:08:51;4.73;;;1.60;;
13979;SDS011;73871;49.900;8.594;2023-11-19T13:11:30;5.47;;;2.20;;
13979;SDS011;73871;49.900;8.594;2023-11-19T13:13:59;10.83;;;1.93;;
13979;SDS011;73871;49.900;8.594;2023-11-19T13:16:35;7.00;;;1.93;;
13979;SDS011;73871;49.900;8.594;2023-11-19T13:19:13;8.10;;;1.83;;
13979;SDS011;73871;49.900;8.594;2023-11-19T13:21:47;6.73;;;1.97;;
13979;SDS011;73871;49.900;8.594;2023-11-19T13:24:15;6.93;;;1.50;;
13979;SDS011;73871;49.900;8.594;2023-11-19T13:26:41;9.43;;;1.90;;
13979;SDS011;73871;49.900;8.594;2023-11-19T13:29:08;6.47;;;2.00;;
13979;SDS011;73871;49.900;8.594;2023-11-19T13:31:37;6.77;;;1.87;;
13979;SDS011;73871;49.900;8.594;2023-11-19T13:34:04;8.27;;;1.73;;
13979;SDS011;73871;49.900;8.594;2023-11-19T13:36:33;7.73;;;1.77;;
13979;SDS011;73871;49.900;8.594;2023-11-19T13:39:00;7.30;;;1.90;;
13979;SDS011;73871;49.900;8.594;2023-11-19T13:41:27;7.57;;;1.60;;
13979;SDS011;73871;49.900;8.594;2023-11-19T13:43:54;7.47;;;1.63;;
13979;SDS011;73871;49.900;8.594;2023-11-19T13:46:21;6.90;;;1.70;;
13979;SDS011;73871;49.900;8.594;2023-11-19T13:48:48;7.03;;;2.00;;
13979;SDS011;73871;49.900;8.594;2023-11-19T13:51:16;7.93;;;1.80;;
13979;SDS011;73871;49.900;8.594;2023-11-19T13:53:43;6.57;;;1.53;;
13979;SDS011;73871;49.900;8.594;2023-11-19T13:56:13;10.23;;;2.17;;
13979;SDS011;73871;49.900;8.594;2023-11-19T13:58:39;6.77;;;1.90;;
13979;SDS011;73871;49.900;8.594;2023-11-19T14:01:06;7.67;;;2.20;;
13979;SDS011;73871;49.900;8.594;2023-11-19T14:03:33;5.43;;;1.63;;
13979;SDS011;73871;49.900;8.594;2023-11-19T14:06:01;5.53;;;1.47;;
13979;SDS011;73871;49.900;8.594;2023-11-19T14:08:29;5.90;;;1.80;;
13979;SDS011;73871;49.900;8.594;2023-11-19T14:10:56;7.63;;;2.00;;
13979;SDS011;73871;49.900;8.594;2023-11-19T14:13:23;6.43;;;1.40;;
13979;SDS011;73871;49.900;8.594;2023-11-19T14:15:50;5.30;;;1.53;;
13979;SDS011;73871;49.900;8.594;2023-11-19T14:18:18;7.33;;;1.77;;
13979;SDS011;73871;49.900;8.594;2023-11-19T14:20:44;5.60;;;1.60;;
13979;SDS011;73871;49.900;8.594;2023-11-19T14:23:11;4.40;;;1.33;;
13979;SDS011;73871;49.900;8.594;2023-11-19T14:25:38;5.97;;;1.60;;
13979;SDS011;73871;49.900;8.594;2023-11-19T14:28:05;7.33;;;2.00;;
13979;SDS011;73871;49.900;8.594;2023-11-19T14:30:32;8.53;;;2.40;;
13979;SDS011;73871;49.900;8.594;2023-11-19T14:33:01;3.23;;;1.43;;
13979;SDS011;73871;49.900;8.594;2023-11-19T14:35:28;7.53;;;2.10;;
13979;SDS011;73871;49.900;8.594;2023-11-19T14:37:56;7.83;;;1.70;;
13979;SDS011;73871;49.900;8.594;2023-11-19T14:40:23;4.80;;;1.60;;
13979;SDS011;73871;49.900;8.594;2023-11-19T14:42:54;8.53;;;2.00;;
13979;SDS011;73871;49.900;8.594;2023-11-19T14:45:21;7.93;;;1.70;;
13979;SDS011;73871;49.900;8.594;2023-11-19T14:47:48;7.73;;;2.20;;
13979;SDS011;73871;49.900;8.594;2023-11-19T14:50:15;5.13;;;1.57;;
13979;SDS011;73871;49.900;8.594;2023-11-19T14:52:42;4.50;;;1.90;;
13979;SDS011;73871;49.900;8.594;2023-11-19T14:55:09;5.67;;;1.27;;
13979;SDS011;73871;49.900;8.594;2023-11-19T14:57:37;5.37;;;1.40;;
13979;SDS011;73871;49.900;8.594;2023-11-19T15:00:05;8.00;;;1.60;;
13979;SDS011;73871;49.900;8.594;2023-11-19T15:02:42;7.53;;;1.53;;
13979;SDS011;73871;49.900;8.594;2023-11-19T15:05:08;8.70;;;1.90;;
13979;SDS011;73871;49.900;8.594;2023-11-19T15:07:39;6.23;;;1.70;;
13979;SDS011;73871;49.900;8.594;2023-11-19T15:10:08;9.80;;;1.97;;
13979;SDS011;73871;49.900;8.594;2023-11-19T15:12:37;7.83;;;1.97;;
13979;SDS011;73871;49.900;8.594;2023-11-19T15:15:06;5.50;;;1.60;;
13979;SDS011;73871;49.900;8.594;2023-11-19T15:17:39;5.83;;;1.50;;